Huvudsida
METAR-TAF:

METAR-TAF

Flygplatser :

Örnsköldsvik Airport

Örnsköldsvik, Sverige

latitud: 63-24N, longitud: 018-58E, höjd: 103 m

Aktuellt väderrapport

Denna rapport gjordes för 22 minuter sedan, klockan 00:50 UTC
Vind 2 kt från nordväst
Temperatur -1°C
Fuktighet 86%
Tryck 1021 hPa
Sikt 10 km eller mer

METAR: ESNO 210050Z AUTO 32002KT 9999 NCD M01/M03 Q1021

Tid: 03:12 (01:12 UTC)


TAF: saknas

Aktuella väderrapporter och prognoser från 4000 flygplatser (METAR- och TAF-rapporter).

De tillgängliga stationerna syns som gula och röda prickar på kartan.

För musen över prickarna för att se namnen på stationerna.

Klicka sedan för att få väderrapporter och prognoser.

För att ändra kartan: Klicka på de gröna knapparna med ett svart kors på för att zooma in; den gröna knappen med ett streck på för att zooma ut; eller på de gröna pilarna för angränsande kartor.


METAR-TAF: